createdAt,value
2018-08-11T00:00:30.560Z,56.99
2018-08-11T00:06:36.084Z,57.34
2018-08-11T00:12:40.863Z,58.02
2018-08-11T00:18:45.692Z,57.46
2018-08-11T00:24:50.487Z,57.93
2018-08-11T00:30:55.257Z,56.89
2018-08-11T00:37:00.065Z,58.16
2018-08-11T00:43:05.148Z,58.76
2018-08-11T00:49:10.047Z,59.39
2018-08-11T00:55:15.386Z,60.29
2018-08-11T01:01:20.477Z,62.57
2018-08-11T01:07:25.378Z,62.40
2018-08-11T01:13:31.128Z,62.04
2018-08-11T01:19:36.329Z,61.83
2018-08-11T01:25:41.043Z,61.67
2018-08-11T01:31:46.253Z,61.73
2018-08-11T01:37:51.104Z,62.15
2018-08-11T01:43:55.924Z,62.76
2018-08-11T01:50:01.585Z,62.58
2018-08-11T01:56:07.041Z,62.71
2018-08-11T02:02:11.837Z,63.45
2018-08-11T02:08:16.683Z,64.12
2018-08-11T02:14:21.652Z,63.89
2018-08-11T02:20:26.493Z,64.35
2018-08-11T02:26:32.427Z,63.43
2018-08-11T02:32:37.539Z,63.18
2018-08-11T02:38:42.377Z,65.00
2018-08-11T02:44:47.196Z,64.51
2018-08-11T02:50:52.047Z,65.47
2018-08-11T02:56:57.210Z,66.77
2018-08-11T03:03:03.694Z,65.56
2018-08-11T03:09:09.645Z,65.46
2018-08-11T03:15:14.717Z,64.27
2018-08-11T03:21:19.727Z,64.75
2018-08-11T03:27:24.704Z,63.83
2018-08-11T03:33:29.578Z,62.08
2018-08-11T03:39:34.479Z,60.92
2018-08-11T03:45:39.270Z,60.62
2018-08-11T03:51:44.036Z,60.28
2018-08-11T03:57:48.857Z,59.99
2018-08-11T04:03:54.349Z,59.00
2018-08-11T04:10:00.635Z,58.33
2018-08-11T04:16:05.608Z,59.05
2018-08-11T04:22:10.640Z,60.89
2018-08-11T04:28:15.503Z,62.43
2018-08-11T04:34:20.313Z,62.98
2018-08-11T04:40:25.282Z,64.47
2018-08-11T04:46:30.033Z,63.50
2018-08-11T04:52:35.865Z,63.36
2018-08-11T04:58:40.683Z,64.73
2018-08-11T05:04:45.701Z,64.38
2018-08-11T05:10:50.465Z,56.96
2018-08-11T05:16:55.645Z,54.68
2018-08-11T05:23:01.233Z,59.96
2018-08-11T05:29:06.247Z,57.66
2018-08-11T05:35:11.052Z,57.50
2018-08-11T05:41:16.220Z,58.44
2018-08-11T05:47:21.471Z,60.05
2018-08-11T05:53:26.166Z,62.34
2018-08-11T05:59:31.732Z,64.46
2018-08-11T06:05:37.230Z,67.95
2018-08-11T06:11:42.588Z,68.03
2018-08-11T06:17:47.314Z,68.77
2018-08-11T06:23:52.364Z,68.77
2018-08-11T06:29:57.236Z,67.54
2018-08-11T06:36:03.892Z,67.53
2018-08-11T06:42:09.018Z,67.62
2018-08-11T06:48:14.182Z,68.18
2018-08-11T06:54:19.411Z,69.28
2018-08-11T07:00:24.154Z,69.15
2018-08-11T07:06:29.058Z,68.82
2018-08-11T07:12:34.657Z,68.00
2018-08-11T07:18:39.494Z,66.44
2018-08-11T07:24:44.737Z,64.75
2018-08-11T07:30:49.754Z,64.01
2018-08-11T07:36:54.508Z,62.08
2018-08-11T07:43:08.056Z,61.56
2018-08-11T07:49:12.690Z,61.07
2018-08-11T07:55:17.721Z,62.23
2018-08-11T08:01:22.443Z,59.62
2018-08-11T08:07:27.219Z,59.73
2018-08-11T08:13:33.361Z,58.02
2018-08-11T08:19:38.330Z,55.58
2018-08-11T08:25:43.314Z,54.49
2018-08-11T08:31:48.057Z,53.49
2018-08-11T08:37:52.793Z,54.25
2018-08-11T08:43:57.605Z,54.02
2018-08-11T08:50:04.248Z,53.38
2018-08-11T08:56:09.230Z,49.27
2018-08-11T09:02:14.439Z,50.37
2018-08-11T09:08:19.329Z,48.22
2018-08-11T09:14:24.001Z,48.86
2018-08-11T09:20:28.881Z,47.75
2018-08-11T09:26:34.217Z,47.09
2018-08-11T09:32:38.979Z,43.83
2018-08-11T09:38:43.716Z,43.17
2018-08-11T09:44:48.626Z,43.78
2018-08-11T09:50:53.385Z,43.70
2018-08-11T09:56:58.200Z,40.51
2018-08-11T10:03:04.053Z,38.70
2018-08-11T10:09:11.552Z,40.05
2018-08-11T10:15:16.850Z,37.49
2018-08-11T10:21:21.828Z,36.68
2018-08-11T10:27:26.544Z,35.91
2018-08-11T10:33:32.501Z,37.05
2018-08-11T10:39:37.291Z,36.58
2018-08-11T10:45:42.362Z,35.25
2018-08-11T10:51:47.241Z,33.66
2018-08-11T10:57:51.980Z,32.34
2018-08-11T11:03:56.632Z,30.09
2018-08-11T11:10:02.606Z,31.31
2018-08-11T11:16:08.205Z,30.65
2018-08-11T11:22:13.320Z,31.86
2018-08-11T11:28:18.395Z,29.91
2018-08-11T11:34:23.418Z,30.83
2018-08-11T11:40:28.096Z,30.49
2018-08-11T11:46:32.888Z,30.71
2018-08-11T11:52:37.748Z,29.49
2018-08-11T11:58:42.461Z,30.79
2018-08-11T12:04:47.095Z,29.39
2018-08-11T12:10:51.849Z,26.34
2018-08-11T12:16:56.575Z,27.63
2018-08-11T12:23:01.755Z,28.18
2018-08-11T12:29:07.266Z,29.86
2018-08-11T12:35:12.282Z,32.40
2018-08-11T12:41:17.141Z,32.28
2018-08-11T12:47:21.850Z,32.28
2018-08-11T12:53:27.080Z,33.08
2018-08-11T12:59:32.722Z,35.98
2018-08-11T13:05:37.439Z,33.80
2018-08-11T13:11:42.169Z,33.26
2018-08-11T13:17:46.824Z,29.65
2018-08-11T13:23:51.585Z,28.98
2018-08-11T13:29:56.777Z,29.83
2018-08-11T13:36:01.978Z,32.15
2018-08-11T13:42:06.661Z,33.33
2018-08-11T13:48:12.087Z,33.28
2018-08-11T13:54:16.851Z,32.14
2018-08-11T14:00:21.543Z,34.03
2018-08-11T14:06:26.583Z,29.27
2018-08-11T14:12:32.928Z,26.92
2018-08-11T14:18:37.652Z,27.41
2018-08-11T14:24:42.394Z,26.94
2018-08-11T14:30:47.329Z,27.01
2018-08-11T14:36:52.060Z,27.13
2018-08-11T14:42:56.785Z,28.29
2018-08-11T14:49:01.870Z,32.12
2018-08-11T14:55:07.559Z,33.00
2018-08-11T15:01:12.214Z,34.05
2018-08-11T15:07:17.297Z,32.80
2018-08-11T15:13:22.107Z,31.12
2018-08-11T15:19:26.924Z,32.84
2018-08-11T15:25:31.982Z,33.55
2018-08-11T15:31:37.157Z,28.90
2018-08-11T15:37:41.855Z,31.04
2018-08-11T15:43:46.883Z,34.42
2018-08-11T15:49:51.634Z,35.98
2018-08-11T15:55:56.418Z,32.89
2018-08-11T16:02:01.367Z,32.20
2018-08-11T16:08:06.748Z,34.61
2018-08-11T16:14:11.521Z,36.94
2018-08-11T16:20:16.372Z,35.90
2018-08-11T16:26:21.158Z,33.68
2018-08-11T16:32:26.403Z,31.41
2018-08-11T16:38:31.181Z,30.00
2018-08-11T16:44:36.639Z,29.69
2018-08-11T16:50:41.375Z,28.43
2018-08-11T16:56:46.171Z,29.57
2018-08-11T17:02:50.907Z,29.67
2018-08-11T17:08:55.582Z,30.26
2018-08-11T17:15:01.005Z,29.82
2018-08-11T17:21:05.900Z,30.34
2018-08-11T17:27:11.125Z,30.07
2018-08-11T17:33:16.110Z,30.28
2018-08-11T17:39:20.940Z,31.26
2018-08-11T17:45:26.038Z,31.66
2018-08-11T17:51:31.044Z,31.06
2018-08-11T17:57:35.983Z,30.89
2018-08-11T18:03:40.679Z,32.21
2018-08-11T18:09:45.911Z,33.18
2018-08-11T18:15:50.660Z,32.54
2018-08-11T18:21:55.524Z,35.25
2018-08-11T18:28:00.675Z,37.80
2018-08-11T18:34:05.498Z,38.31
2018-08-11T18:40:10.598Z,39.60
2018-08-11T18:46:15.481Z,40.89
2018-08-11T18:52:20.244Z,41.87
2018-08-11T18:58:25.088Z,42.10
2018-08-11T19:04:29.913Z,44.32
2018-08-11T19:10:35.221Z,45.72
2018-08-11T19:16:40.148Z,47.48
2018-08-11T19:22:44.861Z,48.89
2018-08-11T19:28:49.605Z,48.29
2018-08-11T19:34:54.410Z,47.23
2018-08-11T19:40:59.789Z,47.57
2018-08-11T19:47:05.405Z,47.62
2018-08-11T19:53:10.218Z,46.38
2018-08-11T19:59:15.285Z,47.81
2018-08-11T20:05:20.075Z,50.18
2018-08-11T20:11:25.073Z,48.79
2018-08-11T20:17:30.494Z,47.93
2018-08-11T20:23:35.952Z,48.81
2018-08-11T20:29:41.600Z,48.49
2018-08-11T20:35:46.372Z,50.51
2018-08-11T20:41:51.151Z,49.03
2018-08-11T20:47:55.973Z,50.41
2018-08-11T20:54:01.974Z,49.19
2018-08-11T21:00:11.026Z,49.18
2018-08-11T21:06:15.951Z,49.71
2018-08-11T21:12:21.065Z,52.15
2018-08-11T21:18:26.131Z,53.67
2018-08-11T21:24:31.316Z,53.39
2018-08-11T21:30:36.206Z,52.90
2018-08-11T21:36:41.149Z,54.63
2018-08-11T21:42:45.689Z,53.23
2018-08-11T21:48:50.399Z,53.93
2018-08-11T21:54:55.208Z,53.77
2018-08-11T22:01:20.748Z,55.41
2018-08-11T22:07:25.560Z,56.44
2018-08-11T22:13:32.052Z,54.95
2018-08-11T22:19:36.800Z,56.23
2018-08-11T22:25:41.873Z,56.37
2018-08-11T22:31:47.480Z,56.70
2018-08-11T22:37:52.294Z,56.16
2018-08-11T22:43:57.064Z,57.19
2018-08-11T22:50:04.537Z,57.92
2018-08-11T22:56:09.269Z,58.50
2018-08-11T23:02:14.267Z,58.24
2018-08-11T23:08:19.224Z,58.98
2018-08-11T23:14:24.029Z,60.12
2018-08-11T23:20:29.751Z,60.68
2018-08-11T23:26:35.807Z,61.64
2018-08-11T23:32:41.471Z,62.14
2018-08-11T23:38:46.418Z,61.75
2018-08-11T23:44:51.173Z,62.32
2018-08-11T23:50:56.066Z,62.88
2018-08-11T23:57:01.228Z,62.32
